createdAt,value
2018-09-20T00:00:18.929Z,1011.44
2018-09-20T00:00:54.385Z,1011.42
2018-09-20T00:01:29.818Z,1011.47
2018-09-20T00:02:05.244Z,1011.44
2018-09-20T00:02:40.871Z,1011.43
2018-09-20T00:03:16.094Z,1011.43
2018-09-20T00:03:51.517Z,1011.39
2018-09-20T00:04:26.739Z,1011.41
2018-09-20T00:05:02.181Z,1011.41
2018-09-20T00:05:37.318Z,1011.41
2018-09-20T00:06:12.818Z,1011.37
2018-09-20T00:06:48.186Z,1011.43
2018-09-20T00:07:23.495Z,1011.41
2018-09-20T00:07:58.822Z,1011.41
2018-09-20T00:08:34.151Z,1011.40
2018-09-20T00:09:09.559Z,1011.40
2018-09-20T00:09:45.009Z,1011.36
2018-09-20T00:10:20.351Z,1011.39
2018-09-20T00:10:55.872Z,1011.38
2018-09-20T00:11:31.395Z,1011.40
2018-09-20T00:12:06.960Z,1011.37
2018-09-20T00:12:42.611Z,1011.38
2018-09-20T00:13:17.651Z,1011.35
2018-09-20T00:13:52.915Z,1011.36
2018-09-20T00:14:28.159Z,1011.33
2018-09-20T00:15:03.739Z,1011.37
2018-09-20T00:15:39.183Z,1011.34
2018-09-20T00:16:14.495Z,1011.37
2018-09-20T00:16:49.964Z,1011.32
2018-09-20T00:17:25.363Z,1011.33
2018-09-20T00:18:00.799Z,1011.31
2018-09-20T00:18:36.041Z,1011.33
2018-09-20T00:19:11.436Z,1011.36
2018-09-20T00:19:46.788Z,1011.32
2018-09-20T00:20:22.095Z,1011.28
2018-09-20T00:20:57.438Z,1011.29
2018-09-20T00:21:32.771Z,1011.29
2018-09-20T00:22:08.096Z,1011.28
2018-09-20T00:22:43.514Z,1011.27
2018-09-20T00:23:18.902Z,1011.27
2018-09-20T00:23:54.292Z,1011.22
2018-09-20T00:24:29.757Z,1011.21
2018-09-20T00:25:05.507Z,1011.21
2018-09-20T00:25:40.876Z,1011.18
2018-09-20T00:26:16.278Z,1011.20
2018-09-20T00:26:51.468Z,1011.15
2018-09-20T00:27:27.279Z,1011.22
2018-09-20T00:28:02.512Z,1011.24
2018-09-20T00:28:37.840Z,1011.24
2018-09-20T00:29:13.058Z,1011.21
2018-09-20T00:29:48.291Z,1011.20
2018-09-20T00:30:23.719Z,1011.16
2018-09-20T00:30:58.858Z,1011.18
2018-09-20T00:31:34.307Z,1011.18
2018-09-20T00:32:09.724Z,1011.13
2018-09-20T00:32:45.164Z,1011.14
2018-09-20T00:33:20.484Z,1011.11
2018-09-20T00:33:56.874Z,1011.11
2018-09-20T00:34:32.282Z,1011.14
2018-09-20T00:35:07.608Z,1011.13
2018-09-20T00:35:43.064Z,1011.10
2018-09-20T00:36:18.194Z,1011.12
2018-09-20T00:36:53.339Z,1011.14
2018-09-20T00:37:28.976Z,1011.13
2018-09-20T00:38:04.326Z,1011.11
2018-09-20T00:38:39.889Z,1011.10
2018-09-20T00:39:15.505Z,1011.09
2018-09-20T00:39:50.954Z,1011.08
2018-09-20T00:40:26.466Z,1011.08
2018-09-20T00:41:01.822Z,1011.10
2018-09-20T00:41:37.203Z,1011.05
2018-09-20T00:42:12.536Z,1011.07
2018-09-20T00:42:47.874Z,1011.06
2018-09-20T00:43:23.172Z,1011.04
2018-09-20T00:43:58.315Z,1011.04
2018-09-20T00:44:33.634Z,1011.00
2018-09-20T00:45:08.937Z,1011.00
2018-09-20T00:45:44.072Z,1011.00
2018-09-20T00:46:19.284Z,1010.97
2018-09-20T00:46:54.555Z,1010.98
2018-09-20T00:47:29.761Z,1011.00
2018-09-20T00:48:04.887Z,1011.03
2018-09-20T00:48:40.544Z,1010.98
2018-09-20T00:49:16.061Z,1010.96
2018-09-20T00:49:51.294Z,1011.01
2018-09-20T00:50:26.606Z,1011.01
2018-09-20T00:51:01.980Z,1010.99
2018-09-20T00:51:37.119Z,1011.00
2018-09-20T00:52:12.442Z,1011.01
2018-09-20T00:52:47.852Z,1010.98
2018-09-20T00:53:22.965Z,1010.98
2018-09-20T00:53:58.393Z,1011.01
2018-09-20T00:54:33.871Z,1010.98
2018-09-20T00:55:09.185Z,1011.00
2018-09-20T00:55:44.707Z,1011.00
2018-09-20T00:56:20.042Z,1011.00
2018-09-20T00:56:55.804Z,1010.99
2018-09-20T00:57:31.414Z,1010.99
2018-09-20T00:58:06.870Z,1011.03
2018-09-20T00:58:42.483Z,1011.00
2018-09-20T00:59:18.030Z,1011.00
2018-09-20T00:59:53.264Z,1011.01
2018-09-20T01:00:28.582Z,1011.05
2018-09-20T01:01:04.012Z,1011.03
2018-09-20T01:01:39.441Z,1011.01
2018-09-20T01:02:14.586Z,1011.03
2018-09-20T01:02:50.079Z,1010.99
2018-09-20T01:03:25.176Z,1011.02
2018-09-20T01:04:00.396Z,1010.98
2018-09-20T01:04:35.799Z,1011.01
2018-09-20T01:05:11.222Z,1011.02
2018-09-20T01:05:46.567Z,1011.01
2018-09-20T01:06:22.059Z,1011.00
2018-09-20T01:06:57.223Z,1011.03
2018-09-20T01:07:32.860Z,1011.01
2018-09-20T01:08:08.201Z,1011.02
2018-09-20T01:08:43.316Z,1011.05
2018-09-20T01:09:18.649Z,1011.03
2018-09-20T01:09:53.895Z,1011.04
2018-09-20T01:10:28.991Z,1011.04
2018-09-20T01:11:04.620Z,1011.05
2018-09-20T01:11:39.965Z,1011.00
2018-09-20T01:12:15.283Z,1011.02
2018-09-20T01:12:50.658Z,1011.04
2018-09-20T01:13:25.763Z,1011.05
2018-09-20T01:14:01.448Z,1011.04
2018-09-20T01:14:36.745Z,1011.02
2018-09-20T01:15:11.997Z,1011.04
2018-09-20T01:15:47.237Z,1011.00
2018-09-20T01:16:22.650Z,1011.01
2018-09-20T01:16:58.007Z,1010.99
2018-09-20T01:17:33.424Z,1010.99
2018-09-20T01:18:08.766Z,1011.00
2018-09-20T01:18:44.189Z,1010.98
2018-09-20T01:19:19.592Z,1010.96
2018-09-20T01:19:55.140Z,1010.94
2018-09-20T01:20:30.647Z,1010.97
2018-09-20T01:21:05.874Z,1010.96
2018-09-20T01:21:41.109Z,1010.93
2018-09-20T01:22:16.256Z,1010.99
2018-09-20T01:22:51.794Z,1010.97
2018-09-20T01:23:27.118Z,1010.95
2018-09-20T01:24:02.643Z,1010.94
2018-09-20T01:24:37.939Z,1010.94
2018-09-20T01:25:13.190Z,1010.97
2018-09-20T01:25:48.746Z,1010.97
2018-09-20T01:26:23.956Z,1010.97
2018-09-20T01:26:59.218Z,1010.94
2018-09-20T01:27:34.440Z,1010.97
2018-09-20T01:28:09.878Z,1010.95
2018-09-20T01:28:45.207Z,1010.97
2018-09-20T01:29:20.305Z,1010.97
2018-09-20T01:29:55.761Z,1010.93
2018-09-20T01:30:31.472Z,1010.98
2018-09-20T01:31:06.701Z,1010.95
2018-09-20T01:31:42.147Z,1010.98
2018-09-20T01:32:17.486Z,1011.01
2018-09-20T01:32:52.724Z,1011.01
2018-09-20T01:33:28.054Z,1011.00
2018-09-20T01:34:03.359Z,1010.98
2018-09-20T01:34:38.472Z,1010.99
2018-09-20T01:35:13.913Z,1010.96
2018-09-20T01:35:49.559Z,1011.00
2018-09-20T01:36:25.083Z,1011.01
2018-09-20T01:37:00.567Z,1011.02
2018-09-20T01:37:35.893Z,1011.03
2018-09-20T01:38:10.939Z,1010.98
2018-09-20T01:38:46.162Z,1010.99
2018-09-20T01:39:21.661Z,1010.97
2018-09-20T01:39:56.798Z,1011.01
2018-09-20T01:40:32.252Z,1010.98
2018-09-20T01:41:07.496Z,1010.98
2018-09-20T01:41:42.920Z,1010.96
2018-09-20T01:42:18.372Z,1010.97
2018-09-20T01:42:53.713Z,1010.96
2018-09-20T01:43:29.016Z,1010.95
2018-09-20T01:44:04.559Z,1010.98
2018-09-20T01:44:39.865Z,1010.99
2018-09-20T01:45:15.396Z,1011.01
2018-09-20T01:45:50.831Z,1011.03
2018-09-20T01:46:26.325Z,1010.97
2018-09-20T01:47:01.921Z,1011.02
2018-09-20T01:47:37.360Z,1011.02
2018-09-20T01:48:12.720Z,1011.02
2018-09-20T01:48:48.021Z,1010.99
2018-09-20T01:49:23.166Z,1010.98
2018-09-20T01:49:58.468Z,1011.01
2018-09-20T01:50:33.797Z,1011.00
2018-09-20T01:51:09.236Z,1011.02
2018-09-20T01:51:44.671Z,1011.00
2018-09-20T01:52:19.992Z,1011.00
2018-09-20T01:52:55.122Z,1011.01
2018-09-20T01:53:30.751Z,1010.99
2018-09-20T01:54:06.168Z,1011.00
2018-09-20T01:54:41.415Z,1010.99
2018-09-20T01:55:16.685Z,1010.99
2018-09-20T01:55:52.007Z,1011.01
2018-09-20T01:56:27.572Z,1011.01
2018-09-20T01:57:03.179Z,1011.03
2018-09-20T01:57:38.564Z,1011.03
2018-09-20T01:58:13.879Z,1011.01
2018-09-20T01:58:48.980Z,1011.01
2018-09-20T01:59:24.104Z,1011.01
2018-09-20T01:59:59.526Z,1011.00
2018-09-20T02:00:34.759Z,1010.99
2018-09-20T02:01:09.988Z,1011.00
2018-09-20T02:01:45.439Z,1010.99
2018-09-20T02:02:21.155Z,1010.99
2018-09-20T02:02:56.483Z,1011.00
2018-09-20T02:03:31.732Z,1011.01
2018-09-20T02:04:07.470Z,1011.04
2018-09-20T02:04:42.900Z,1011.04
2018-09-20T02:05:18.133Z,1011.07
2018-09-20T02:05:53.425Z,1011.07
2018-09-20T02:06:28.809Z,1011.03
2018-09-20T02:07:04.107Z,1011.05
2018-09-20T02:07:39.523Z,1011.08
2018-09-20T02:08:14.976Z,1011.04
2018-09-20T02:08:50.299Z,1011.03
2018-09-20T02:09:25.668Z,1011.07
2018-09-20T02:10:01.075Z,1011.06
2018-09-20T02:10:36.519Z,1011.02
2018-09-20T02:11:11.977Z,1011.07
2018-09-20T02:11:47.203Z,1011.03
2018-09-20T02:12:22.537Z,1011.05
2018-09-20T02:12:58.187Z,1011.03
2018-09-20T02:13:33.718Z,1011.05
2018-09-20T02:14:09.046Z,1011.00
2018-09-20T02:14:44.342Z,1011.05
2018-09-20T02:15:19.680Z,1011.03
2018-09-20T02:15:55.010Z,1011.08
2018-09-20T02:16:30.274Z,1011.05
2018-09-20T02:17:05.600Z,1011.05
2018-09-20T02:17:41.229Z,1011.06
2018-09-20T02:18:16.761Z,1011.05
2018-09-20T02:18:52.303Z,1011.05
2018-09-20T02:19:27.930Z,1011.06
2018-09-20T02:20:03.231Z,1011.03
2018-09-20T02:20:38.475Z,1011.06
2018-09-20T02:21:13.735Z,1011.05
2018-09-20T02:21:48.985Z,1011.06
2018-09-20T02:22:24.619Z,1011.05
2018-09-20T02:22:59.935Z,1011.02
2018-09-20T02:23:34.960Z,1011.08
2018-09-20T02:24:10.406Z,1011.07
2018-09-20T02:24:46.032Z,1011.07
2018-09-20T02:25:21.283Z,1011.08
2018-09-20T02:25:56.585Z,1011.03
2018-09-20T02:26:31.974Z,1011.05
2018-09-20T02:27:07.511Z,1011.09
2018-09-20T02:27:42.745Z,1011.13
2018-09-20T02:28:17.988Z,1011.08
2018-09-20T02:28:53.601Z,1011.10
2018-09-20T02:29:28.759Z,1011.11
2018-09-20T02:30:04.022Z,1011.13
2018-09-20T02:30:39.441Z,1011.13
2018-09-20T02:31:14.773Z,1011.12
2018-09-20T02:31:50.106Z,1011.15
2018-09-20T02:32:25.657Z,1011.10
2018-09-20T02:33:00.757Z,1011.12
2018-09-20T02:33:36.161Z,1011.13
2018-09-20T02:34:11.602Z,1011.11
2018-09-20T02:34:47.220Z,1011.13
2018-09-20T02:35:22.437Z,1011.14
2018-09-20T02:35:57.637Z,1011.14
2018-09-20T02:36:32.718Z,1011.15
2018-09-20T02:37:08.160Z,1011.16
2018-09-20T02:37:43.367Z,1011.16
2018-09-20T02:38:18.703Z,1011.12
2018-09-20T02:38:54.013Z,1011.13
2018-09-20T02:39:29.345Z,1011.17
2018-09-20T02:40:04.805Z,1011.18
2018-09-20T02:40:40.320Z,1011.16
2018-09-20T02:41:15.574Z,1011.14
2018-09-20T02:41:50.611Z,1011.13
2018-09-20T02:42:26.240Z,1011.15
2018-09-20T02:43:01.666Z,1011.12
2018-09-20T02:43:37.101Z,1011.12
2018-09-20T02:44:12.273Z,1011.10
2018-09-20T02:44:47.571Z,1011.12
2018-09-20T02:45:22.994Z,1011.07
2018-09-20T02:45:58.216Z,1011.08
2018-09-20T02:46:33.599Z,1011.07
2018-09-20T02:47:09.331Z,1011.07
2018-09-20T02:47:44.450Z,1011.06
2018-09-20T02:48:20.218Z,1011.07
2018-09-20T02:48:55.413Z,1011.08
2018-09-20T02:49:30.687Z,1011.07
2018-09-20T02:50:06.330Z,1011.09
2018-09-20T02:50:41.727Z,1011.04
2018-09-20T02:51:17.197Z,1011.07
2018-09-20T02:51:52.227Z,1011.10
2018-09-20T02:52:27.362Z,1011.09
2018-09-20T02:53:02.593Z,1011.06
2018-09-20T02:53:37.732Z,1011.08
2018-09-20T02:54:13.378Z,1011.06
2018-09-20T02:54:48.924Z,1011.04
2018-09-20T02:55:24.260Z,1011.00
2018-09-20T02:55:59.574Z,1011.00
2018-09-20T02:56:34.882Z,1011.01
2018-09-20T02:57:10.127Z,1010.99
2018-09-20T02:57:45.530Z,1011.01
2018-09-20T02:58:20.798Z,1011.00
2018-09-20T02:58:56.337Z,1010.98
2018-09-20T02:59:31.785Z,1011.00
2018-09-20T03:00:07.098Z,1011.03
2018-09-20T03:00:42.510Z,1011.00
2018-09-20T03:01:17.441Z,1010.98
2018-09-20T03:01:52.714Z,1010.97
2018-09-20T03:02:28.193Z,1010.94
2018-09-20T03:03:03.696Z,1010.90
2018-09-20T03:03:39.149Z,1010.93
2018-09-20T03:04:14.394Z,1010.96
2018-09-20T03:04:49.668Z,1010.89
2018-09-20T03:05:25.023Z,1010.92
2018-09-20T03:06:00.228Z,1010.95
2018-09-20T03:06:35.696Z,1010.85
2018-09-20T03:07:11.059Z,1010.91
2018-09-20T03:07:46.379Z,1010.91
2018-09-20T03:08:21.904Z,1010.89
2018-09-20T03:08:57.227Z,1010.90
2018-09-20T03:09:32.571Z,1010.93
2018-09-20T03:10:08.112Z,1010.91
2018-09-20T03:10:43.246Z,1010.91
2018-09-20T03:11:18.479Z,1010.93
2018-09-20T03:11:53.729Z,1010.93
2018-09-20T03:12:29.178Z,1010.90
2018-09-20T03:13:04.336Z,1010.92
2018-09-20T03:13:39.552Z,1010.92
2018-09-20T03:14:15.008Z,1010.89
2018-09-20T03:14:50.610Z,1010.92
2018-09-20T03:15:25.846Z,1010.91
2018-09-20T03:16:01.457Z,1010.93
2018-09-20T03:16:36.714Z,1010.94
2018-09-20T03:17:12.371Z,1010.97
2018-09-20T03:17:47.592Z,1010.95
2018-09-20T03:18:22.801Z,1010.99
2018-09-20T03:18:58.335Z,1010.97
2018-09-20T03:19:33.765Z,1010.95
2018-09-20T03:20:09.099Z,1010.93
2018-09-20T03:20:44.493Z,1010.97
2018-09-20T03:21:19.934Z,1010.94
2018-09-20T03:21:55.410Z,1010.96
2018-09-20T03:22:30.897Z,1010.95
2018-09-20T03:23:06.040Z,1010.95
2018-09-20T03:23:41.370Z,1010.93
2018-09-20T03:24:16.636Z,1010.92
2018-09-20T03:24:52.242Z,1010.93
2018-09-20T03:25:27.791Z,1010.92
2018-09-20T03:26:03.544Z,1010.95
2018-09-20T03:26:39.064Z,1010.92
2018-09-20T03:27:14.316Z,1010.95
2018-09-20T03:27:49.436Z,1010.95
2018-09-20T03:28:25.287Z,1010.96
2018-09-20T03:29:00.667Z,1011.00
2018-09-20T03:29:36.020Z,1011.00
2018-09-20T03:30:11.330Z,1010.95
2018-09-20T03:30:46.825Z,1010.97
2018-09-20T03:31:22.171Z,1011.00
2018-09-20T03:31:57.720Z,1010.98
2018-09-20T03:32:33.290Z,1010.95
2018-09-20T03:33:08.818Z,1010.97
2018-09-20T03:33:44.675Z,1010.97
2018-09-20T03:34:20.232Z,1010.98
2018-09-20T03:34:55.651Z,1010.97
2018-09-20T03:35:31.203Z,1010.97
2018-09-20T03:36:06.437Z,1010.95
2018-09-20T03:36:41.816Z,1010.97
2018-09-20T03:37:16.954Z,1011.01
2018-09-20T03:37:52.165Z,1011.02
2018-09-20T03:38:27.723Z,1011.01
2018-09-20T03:39:03.119Z,1011.02
2018-09-20T03:39:38.761Z,1011.03
2018-09-20T03:40:13.992Z,1011.06
2018-09-20T03:40:49.218Z,1011.04
2018-09-20T03:41:24.558Z,1011.03
2018-09-20T03:42:00.118Z,1011.04
2018-09-20T03:42:35.450Z,1011.06
2018-09-20T03:43:10.685Z,1011.03
2018-09-20T03:43:46.214Z,1011.04
2018-09-20T03:44:21.864Z,1011.02
2018-09-20T03:44:57.164Z,1011.04
2018-09-20T03:45:32.097Z,1011.04
2018-09-20T03:46:07.537Z,1011.06
2018-09-20T03:46:43.389Z,1011.03
2018-09-20T03:47:18.944Z,1011.00
2018-09-20T03:47:54.250Z,1010.97
2018-09-20T03:48:29.433Z,1011.02
2018-09-20T03:49:04.687Z,1010.99
2018-09-20T03:49:40.028Z,1011.02
2018-09-20T03:50:15.668Z,1011.01
2018-09-20T03:50:51.186Z,1011.00
2018-09-20T03:51:26.857Z,1011.04
2018-09-20T03:52:02.262Z,1011.00
2018-09-20T03:52:37.627Z,1011.02
2018-09-20T03:53:13.261Z,1011.05
2018-09-20T03:53:48.704Z,1011.03
2018-09-20T03:54:24.356Z,1011.03
2018-09-20T03:54:59.966Z,1011.05
2018-09-20T03:55:35.225Z,1011.05
2018-09-20T03:56:10.259Z,1011.06
2018-09-20T03:56:45.632Z,1011.04
2018-09-20T03:57:21.075Z,1011.07
2018-09-20T03:57:56.592Z,1011.05
2018-09-20T03:58:31.908Z,1011.07
2018-09-20T03:59:07.211Z,1011.07
2018-09-20T03:59:42.504Z,1011.07
2018-09-20T04:00:17.747Z,1011.09
2018-09-20T04:00:53.357Z,1011.07
2018-09-20T04:01:28.812Z,1011.07
2018-09-20T04:02:04.119Z,1011.06
2018-09-20T04:02:39.460Z,1011.04
2018-09-20T04:03:15.099Z,1011.09
2018-09-20T04:03:50.493Z,1011.12
2018-09-20T04:04:25.833Z,1011.11
2018-09-20T04:05:01.233Z,1011.08
2018-09-20T04:05:36.488Z,1011.08
2018-09-20T04:06:11.791Z,1011.09
2018-09-20T04:06:47.263Z,1011.07
2018-09-20T04:07:22.609Z,1011.09
2018-09-20T04:07:57.816Z,1011.06
2018-09-20T04:08:33.173Z,1011.10
2018-09-20T04:09:08.418Z,1011.05
2018-09-20T04:09:43.881Z,1011.07
2018-09-20T04:10:19.389Z,1011.07
2018-09-20T04:10:54.825Z,1011.06
2018-09-20T04:11:30.063Z,1011.07
2018-09-20T04:12:05.427Z,1011.06
2018-09-20T04:12:40.660Z,1011.08
2018-09-20T04:13:16.092Z,1011.07
2018-09-20T04:13:51.537Z,1011.06
2018-09-20T04:14:26.786Z,1011.04
2018-09-20T04:15:01.994Z,1011.06
2018-09-20T04:15:37.227Z,1011.09
2018-09-20T04:16:12.541Z,1011.08
2018-09-20T04:16:47.974Z,1011.12
2018-09-20T04:17:23.401Z,1011.09
2018-09-20T04:17:59.050Z,1011.13
2018-09-20T04:18:34.382Z,1011.10
2018-09-20T04:19:09.908Z,1011.14
2018-09-20T04:19:45.536Z,1011.09
2018-09-20T04:20:20.847Z,1011.10
2018-09-20T04:20:55.993Z,1011.10
2018-09-20T04:21:31.314Z,1011.13
2018-09-20T04:22:06.846Z,1011.09
2018-09-20T04:22:42.126Z,1011.08
2018-09-20T04:23:17.248Z,1011.08
2018-09-20T04:23:52.725Z,1011.08
2018-09-20T04:24:27.927Z,1011.06
2018-09-20T04:25:03.161Z,1011.09
2018-09-20T04:25:38.756Z,1011.06
2018-09-20T04:26:15.106Z,1011.04
2018-09-20T04:26:50.722Z,1011.03
2018-09-20T04:27:26.069Z,1011.09
2018-09-20T04:28:01.419Z,1011.09
2018-09-20T04:28:36.775Z,1011.08
2018-09-20T04:29:12.298Z,1011.06
2018-09-20T04:29:47.568Z,1011.05
2018-09-20T04:30:22.692Z,1011.04
2018-09-20T04:30:58.209Z,1011.02
2018-09-20T04:31:33.531Z,1010.99
2018-09-20T04:32:08.980Z,1011.03
2018-09-20T04:32:44.274Z,1011.04
2018-09-20T04:33:19.674Z,1011.03
2018-09-20T04:33:55.009Z,1010.98
2018-09-20T04:34:30.346Z,1011.02
2018-09-20T04:35:05.736Z,1011.01
2018-09-20T04:35:40.989Z,1011.01
2018-09-20T04:36:16.402Z,1011.04
2018-09-20T04:36:51.581Z,1011.03
2018-09-20T04:37:26.828Z,1011.04
2018-09-20T04:38:01.946Z,1011.07
2018-09-20T04:38:37.229Z,1011.06
2018-09-20T04:39:12.370Z,1011.08
2018-09-20T04:39:47.778Z,1011.09
2018-09-20T04:40:23.340Z,1011.08
2018-09-20T04:40:58.439Z,1011.10
2018-09-20T04:41:33.661Z,1011.11
2018-09-20T04:42:09.247Z,1011.13
2018-09-20T04:42:44.768Z,1011.11
2018-09-20T04:43:20.391Z,1011.08
2018-09-20T04:43:55.539Z,1011.09
2018-09-20T04:44:31.383Z,1011.11
2018-09-20T04:45:06.990Z,1011.11
2018-09-20T04:45:42.573Z,1011.12
2018-09-20T04:46:17.599Z,1011.12
2018-09-20T04:46:53.091Z,1011.10
2018-09-20T04:47:28.193Z,1011.14
2018-09-20T04:48:03.891Z,1011.11
2018-09-20T04:48:39.509Z,1011.13
2018-09-20T04:49:14.973Z,1011.13
2018-09-20T04:49:50.292Z,1011.11
2018-09-20T04:50:25.543Z,1011.11
2018-09-20T04:51:00.688Z,1011.17
2018-09-20T04:51:36.131Z,1011.10
2018-09-20T04:52:11.491Z,1011.09
2018-09-20T04:52:46.892Z,1011.12
2018-09-20T04:53:22.437Z,1011.11
2018-09-20T04:53:57.763Z,1011.14
2018-09-20T04:54:33.214Z,1011.15
2018-09-20T04:55:08.538Z,1011.13
2018-09-20T04:55:44.103Z,1011.12
2018-09-20T04:56:19.426Z,1011.16
2018-09-20T04:56:54.885Z,1011.13
2018-09-20T04:57:30.483Z,1011.15
2018-09-20T04:58:06.142Z,1011.15
2018-09-20T04:58:41.939Z,1011.12
2018-09-20T04:59:17.276Z,1011.14
2018-09-20T04:59:52.572Z,1011.13
2018-09-20T05:00:28.162Z,1011.11
2018-09-20T05:01:03.471Z,1011.15
2018-09-20T05:01:38.940Z,1011.13
2018-09-20T05:02:14.291Z,1011.09
2018-09-20T05:02:49.485Z,1011.08
2018-09-20T05:03:24.549Z,1011.10
2018-09-20T05:04:00.016Z,1011.08
2018-09-20T05:04:35.272Z,1011.11
2018-09-20T05:05:10.419Z,1011.10
2018-09-20T05:05:46.576Z,1011.10
2018-09-20T05:06:21.889Z,1011.14
2018-09-20T05:06:57.262Z,1011.14
2018-09-20T05:07:32.497Z,1011.11
2018-09-20T05:08:08.056Z,1011.13
2018-09-20T05:08:43.370Z,1011.12
2018-09-20T05:09:20.150Z,1011.14
2018-09-20T05:09:55.404Z,1011.12
2018-09-20T05:10:30.909Z,1011.12
2018-09-20T05:11:06.430Z,1011.08
2018-09-20T05:11:41.800Z,1011.08
2018-09-20T05:12:17.010Z,1011.05
2018-09-20T05:12:52.559Z,1011.08
2018-09-20T05:13:28.257Z,1011.06
2018-09-20T05:14:03.395Z,1011.09
2018-09-20T05:14:38.712Z,1011.02
2018-09-20T05:15:14.633Z,1011.07
2018-09-20T05:15:50.208Z,1011.05
2018-09-20T05:16:25.345Z,1011.03
2018-09-20T05:19:40.010Z,1011.04
2018-09-20T05:22:55.570Z,1011.09
2018-09-20T05:26:10.975Z,1011.05
2018-09-20T05:26:46.309Z,1011.05
2018-09-20T05:27:21.597Z,1011.06
2018-09-20T05:27:57.257Z,1011.03
2018-09-20T05:28:32.345Z,1011.05
2018-09-20T05:31:09.861Z,1011.03
2018-09-20T05:31:46.795Z,1010.98
2018-09-20T05:32:22.542Z,1011.02
2018-09-20T05:32:57.540Z,1011.01
2018-09-20T05:33:32.896Z,1011.01
2018-09-20T05:34:08.425Z,1011.03
2018-09-20T05:37:22.806Z,1011.04
2018-09-20T05:37:58.007Z,1011.04
2018-09-20T05:38:33.761Z,1011.05
2018-09-20T05:39:09.487Z,1011.05
2018-09-20T05:39:44.899Z,1011.04
2018-09-20T05:40:20.245Z,1011.06
2018-09-20T05:40:55.329Z,1011.04
2018-09-20T05:41:30.697Z,1011.05
2018-09-20T05:42:06.386Z,1011.06
2018-09-20T05:42:41.829Z,1011.04
2018-09-20T05:43:17.124Z,1011.06
2018-09-20T05:43:52.478Z,1011.06
2018-09-20T05:44:27.942Z,1011.06
2018-09-20T05:45:03.369Z,1011.06
2018-09-20T05:45:38.710Z,1011.05
2018-09-20T05:46:14.470Z,1011.08
2018-09-20T05:46:49.759Z,1011.03
2018-09-20T05:47:25.544Z,1011.06
2018-09-20T05:48:00.975Z,1011.12
2018-09-20T05:48:36.254Z,1011.06
2018-09-20T05:49:12.521Z,1011.11
2018-09-20T05:49:47.967Z,1011.14
2018-09-20T05:50:23.645Z,1011.09
2018-09-20T05:50:59.068Z,1011.08
2018-09-20T05:51:34.631Z,1011.08
2018-09-20T05:52:10.143Z,1011.07
2018-09-20T05:52:45.666Z,1011.06
2018-09-20T05:53:21.255Z,1011.06
2018-09-20T05:53:56.935Z,1011.06
2018-09-20T05:54:32.605Z,1011.04
2018-09-20T05:55:08.005Z,1011.00
2018-09-20T05:55:43.029Z,1011.05
2018-09-20T05:56:18.929Z,1011.04
2018-09-20T05:56:54.509Z,1011.03
2018-09-20T05:57:29.835Z,1011.02
2018-09-20T05:58:05.179Z,1011.03
2018-09-20T05:58:41.064Z,1011.01
2018-09-20T05:59:16.842Z,1011.02
2018-09-20T05:59:52.230Z,1011.04
2018-09-20T06:00:27.803Z,1011.03
2018-09-20T06:01:03.223Z,1011.04
2018-09-20T06:01:38.644Z,1011.03
2018-09-20T06:02:14.215Z,1010.99
2018-09-20T06:02:49.627Z,1011.02
2018-09-20T06:03:25.479Z,1011.01
2018-09-20T06:04:00.984Z,1010.99
2018-09-20T06:04:36.608Z,1011.04
2018-09-20T06:05:11.934Z,1011.03
2018-09-20T06:05:46.982Z,1011.01
2018-09-20T06:06:22.205Z,1011.04
2018-09-20T06:06:57.388Z,1011.00
2018-09-20T06:07:32.925Z,1011.00
2018-09-20T06:08:08.210Z,1010.98
2018-09-20T06:08:43.664Z,1011.03
2018-09-20T06:09:19.086Z,1010.96
2018-09-20T06:09:54.320Z,1011.02
2018-09-20T06:10:29.643Z,1010.98
2018-09-20T06:11:04.967Z,1011.00
2018-09-20T06:11:40.347Z,1011.04
2018-09-20T06:12:15.581Z,1010.99
2018-09-20T06:12:50.795Z,1011.03
2018-09-20T06:13:26.184Z,1010.99
2018-09-20T06:14:01.529Z,1011.04
2018-09-20T06:14:36.945Z,1011.01
2018-09-20T06:15:12.483Z,1011.03
2018-09-20T06:15:48.016Z,1011.00
2018-09-20T06:16:23.691Z,1011.01
2018-09-20T06:16:58.914Z,1010.99
2018-09-20T06:17:34.438Z,1011.01
2018-09-20T06:18:09.639Z,1011.00
2018-09-20T06:18:45.297Z,1010.98
2018-09-20T06:19:20.520Z,1011.01
2018-09-20T06:19:55.858Z,1011.02
2018-09-20T06:20:31.375Z,1011.03
2018-09-20T06:21:06.742Z,1011.03
2018-09-20T06:21:42.201Z,1011.05
2018-09-20T06:22:17.648Z,1011.02
2018-09-20T06:22:52.853Z,1011.00
2018-09-20T06:23:28.111Z,1011.05
2018-09-20T06:24:03.298Z,1011.02
2018-09-20T06:24:38.759Z,1011.01
2018-09-20T06:25:14.116Z,1011.00
2018-09-20T06:25:49.530Z,1011.00
2018-09-20T06:26:24.858Z,1010.97
2018-09-20T06:27:00.156Z,1010.96
2018-09-20T06:27:35.429Z,1010.95
2018-09-20T06:28:10.967Z,1010.97
2018-09-20T06:28:46.408Z,1011.00
2018-09-20T06:29:21.728Z,1010.95
2018-09-20T06:29:57.269Z,1010.97
2018-09-20T06:30:32.676Z,1010.99
2018-09-20T06:31:07.820Z,1011.00
2018-09-20T06:31:43.543Z,1010.98
2018-09-20T06:32:18.875Z,1010.97
2018-09-20T06:32:54.299Z,1010.95
2018-09-20T06:33:29.692Z,1010.96
2018-09-20T06:34:05.095Z,1010.95
2018-09-20T06:34:40.538Z,1010.98
2018-09-20T06:35:15.717Z,1011.00
2018-09-20T06:35:51.024Z,1011.02
2018-09-20T06:36:26.157Z,1011.01
2018-09-20T06:37:01.480Z,1010.97
2018-09-20T06:37:36.582Z,1010.99
2018-09-20T06:38:11.880Z,1011.00
2018-09-20T06:38:47.220Z,1011.02
2018-09-20T06:39:22.707Z,1011.06
2018-09-20T06:39:58.139Z,1011.09
2018-09-20T06:40:33.711Z,1011.05
2018-09-20T06:41:09.284Z,1011.05
2018-09-20T06:41:44.584Z,1011.06
2018-09-20T06:42:19.911Z,1011.06
2018-09-20T06:42:55.213Z,1011.09
2018-09-20T06:43:30.871Z,1011.09
2018-09-20T06:44:06.240Z,1011.12
2018-09-20T06:44:41.657Z,1011.12
2018-09-20T06:45:16.957Z,1011.14
2018-09-20T06:45:52.350Z,1011.13
2018-09-20T06:46:27.490Z,1011.12
2018-09-20T06:47:02.818Z,1011.13
2018-09-20T06:47:38.321Z,1011.13
2018-09-20T06:48:13.637Z,1011.12
2018-09-20T06:48:48.870Z,1011.15
2018-09-20T06:49:24.579Z,1011.11
2018-09-20T06:49:59.773Z,1011.08
2018-09-20T06:50:35.095Z,1011.13
2018-09-20T06:51:10.243Z,1011.10
2018-09-20T06:51:45.629Z,1011.08
2018-09-20T06:52:20.992Z,1011.10
2018-09-20T06:52:56.328Z,1011.07
2018-09-20T06:53:31.786Z,1011.09
2018-09-20T06:54:07.244Z,1011.07
2018-09-20T06:54:42.523Z,1011.05
2018-09-20T06:55:17.846Z,1011.07
2018-09-20T06:55:53.350Z,1011.09
2018-09-20T06:56:28.693Z,1011.09
2018-09-20T06:57:03.959Z,1011.08
2018-09-20T06:57:39.299Z,1011.10
2018-09-20T06:58:14.488Z,1011.12
2018-09-20T06:58:49.831Z,1011.08
2018-09-20T06:59:25.115Z,1011.09
2018-09-20T07:00:00.437Z,1011.05
2018-09-20T07:00:36.140Z,1011.03
2018-09-20T07:01:12.050Z,1011.07
2018-09-20T07:01:47.395Z,1011.11
2018-09-20T07:02:22.837Z,1011.15
2018-09-20T07:02:58.289Z,1011.16
2018-09-20T07:03:33.557Z,1011.17
2018-09-20T07:04:08.818Z,1011.11
2018-09-20T07:04:44.049Z,1011.08
2018-09-20T07:05:19.347Z,1011.10
2018-09-20T07:05:54.665Z,1011.10
2018-09-20T07:06:30.295Z,1011.11
2018-09-20T07:07:05.848Z,1011.15
2018-09-20T07:07:41.254Z,1011.12
2018-09-20T07:08:16.690Z,1011.09
2018-09-20T07:08:51.988Z,1011.03
2018-09-20T07:09:27.413Z,1011.05
2018-09-20T07:10:02.795Z,1011.10
2018-09-20T07:10:38.358Z,1011.11
2018-09-20T07:11:13.713Z,1011.08
2018-09-20T07:11:49.139Z,1011.10
2018-09-20T07:12:24.585Z,1011.08
2018-09-20T07:13:00.030Z,1011.12
2018-09-20T07:13:35.666Z,1011.11
2018-09-20T07:14:10.984Z,1011.11
2018-09-20T07:14:46.447Z,1011.07
2018-09-20T07:15:21.667Z,1011.16
2018-09-20T07:15:56.952Z,1011.11
2018-09-20T07:16:32.199Z,1011.11
2018-09-20T07:17:07.710Z,1011.12
2018-09-20T07:17:42.970Z,1011.08
2018-09-20T07:18:18.400Z,1011.04
2018-09-20T07:18:53.846Z,1011.08
2018-09-20T07:19:29.104Z,1011.07
2018-09-20T07:20:04.167Z,1011.08
2018-09-20T07:20:39.581Z,1011.10